Time;durP1;ratioP1;P1;durP2;ratioP2;P2;SDS_P1;SDS_P2;PMS_P1;PMS_P2;Temp;Humidity;BMP_temperature;BMP_pressure;BME280_temperature;BME280_humidity;BME280_pressure;Samples;Min_cycle;Max_cycle;Signal;HPM_P1;HPM_P2
2021/12/30 00:01:11;;;;;;;0.40;0.30;;;12.10;99.90;;;;;;5093178;28;20455;-89
2021/12/30 00:03:38;;;;;;;0.67;0.30;;;;;;;;;;5086896;28;20537;-89
2021/12/30 00:06:07;;;;;;;0.97;0.30;;;12.10;99.90;;;;;;5093015;28;20456;-90
2021/12/30 00:08:34;;;;;;;0.40;0.30;;;12.20;99.90;;;;;;5093181;28;20494;-89
2021/12/30 00:11:01;;;;;;;1.43;0.47;;;12.00;99.90;;;;;;5091773;28;20447;-89
2021/12/30 00:13:28;;;;;;;0.70;0.47;;;12.10;99.90;;;;;;5092954;28;20974;-89
2021/12/30 00:15:57;;;;;;;0.40;0.30;;;12.10;99.90;;;;;;5092978;28;20458;-89
2021/12/30 00:18:24;;;;;;;1.20;0.40;;;12.10;99.90;;;;;;5092520;28;20858;-90
2021/12/30 00:20:51;;;;;;;0.50;0.40;;;12.00;99.90;;;;;;5092681;28;20466;-88
2021/12/30 00:23:18;;;;;;;6.30;0.63;;;;;;;;;;5093017;28;20471;-89
2021/12/30 00:25:45;;;;;;;2.73;0.60;;;12.20;99.90;;;;;;5096520;28;20455;-89
2021/12/30 00:28:14;;;;;;;1.40;0.50;;;12.20;99.90;;;;;;5091842;28;20490;-89
2021/12/30 00:30:41;;;;;;;0.80;0.60;;;;;;;;;;5097114;28;20443;-89
2021/12/30 00:33:09;;;;;;;0.47;0.37;;;11.90;99.90;;;;;;5096949;28;20452;-89
2021/12/30 00:35:37;;;;;;;0.57;0.30;;;;;;;;;;5096913;28;20976;-88
2021/12/30 00:38:04;;;;;;;1.70;0.77;;;12.10;99.90;;;;;;5093872;28;20493;-90
2021/12/30 00:40:32;;;;;;;1.53;0.57;;;;;;;;;;5095843;28;20966;-93
2021/12/30 00:43:00;;;;;;;1.50;0.53;;;12.20;99.90;;;;;;5096946;28;20968;-90
2021/12/30 00:45:27;;;;;;;1.57;0.50;;;12.40;99.90;;;;;;5093688;28;20448;-89
2021/12/30 00:47:54;;;;;;;1.20;0.80;;;12.10;99.90;;;;;;5093443;28;20446;-88
2021/12/30 00:50:22;;;;;;;0.77;0.50;;;11.90;99.90;;;;;;5096624;28;20805;-93
2021/12/30 00:52:49;;;;;;;2.20;0.50;;;12.10;99.90;;;;;;5091538;28;20451;-91
2021/12/30 00:55:16;;;;;;;1.33;0.87;;;;;;;;;;5095344;28;20455;-88
2021/12/30 00:57:43;;;;;;;4.23;0.50;;;12.10;99.90;;;;;;5096377;28;20452;-89
2021/12/30 01:00:14;;;;;;;1.40;0.50;;;12.00;99.90;;;;;;5093385;28;20454;-89
2021/12/30 01:02:41;;;;;;;3.30;0.67;;;;;;;;;;5093221;28;20487;-91
2021/12/30 01:05:10;;;;;;;1.60;0.30;;;11.70;99.90;;;;;;5093329;28;20457;-92
2021/12/30 01:07:39;;;;;;;1.63;0.40;;;11.80;99.90;;;;;;5090854;28;20845;-89
2021/12/30 01:10:09;;;;;;;0.60;0.33;;;11.90;99.90;;;;;;5095136;28;20502;-89
2021/12/30 01:12:37;;;;;;;3.03;0.70;;;11.90;99.90;;;;;;5096092;28;20491;-88
2021/12/30 01:15:08;;;;;;;1.17;0.50;;;11.80;99.90;;;;;;5060807;28;20474;-88
2021/12/30 01:17:54;;;;;;;0.87;0.60;;;11.70;99.90;;;;;;5092731;28;20917;-88
2021/12/30 01:20:22;;;;;;;0.83;0.50;;;12.00;99.90;;;;;;5096124;28;20443;-93
2021/12/30 01:22:52;;;;;;;1.63;0.50;;;11.70;99.90;;;;;;5095944;28;20475;-92
2021/12/30 01:25:20;;;;;;;0.93;0.60;;;11.90;99.90;;;;;;5094885;28;20446;-88
2021/12/30 01:27:47;;;;;;;1.83;0.50;;;11.70;99.90;;;;;;5095908;28;20519;-89
2021/12/30 01:30:18;;;;;;;1.33;0.30;;;11.70;99.90;;;;;;5095808;28;21053;-92
2021/12/30 01:32:45;;;;;;;1.10;0.53;;;12.10;99.90;;;;;;5095068;28;20450;-89
2021/12/30 01:35:21;;;;;;;2.97;0.60;;;11.90;99.90;;;;;;5089748;28;20451;-88
2021/12/30 01:37:54;;;;;;;0.60;0.47;;;12.00;99.90;;;;;;5095509;28;21006;-89
2021/12/30 01:40:21;;;;;;;2.00;0.60;;;;;;;;;;5091297;28;20869;-88
2021/12/30 01:42:49;;;;;;;2.33;1.00;;;;;;;;;;5095421;28;20454;-88
2021/12/30 01:45:17;;;;;;;0.80;0.60;;;11.90;99.90;;;;;;5095354;28;20443;-89
2021/12/30 01:47:50;;;;;;;1.90;0.50;;;;;;;;;;5092424;28;20451;-88
2021/12/30 01:50:17;;;;;;;0.97;0.60;;;;;;;;;;5095197;28;20497;-89
2021/12/30 01:52:44;;;;;;;0.83;0.50;;;11.40;99.90;;;;;;5095314;28;20458;-90
2021/12/30 01:55:15;;;;;;;1.20;0.70;;;11.50;99.90;;;;;;5094351;28;20450;-88
2021/12/30 01:57:43;;;;;;;1.77;0.50;;;;;;;;;;5092200;28;20444;-92
2021/12/30 02:00:13;;;;;;;0.70;0.60;;;11.30;99.90;;;;;;5095177;28;20443;-89
2021/12/30 02:02:40;;;;;;;2.20;0.57;;;11.90;99.90;;;;;;5095109;28;20476;-89
2021/12/30 02:05:08;;;;;;;1.40;0.50;;;11.70;99.90;;;;;;5091936;28;20878;-88
2021/12/30 02:07:38;;;;;;;3.80;0.87;;;11.50;99.90;;;;;;5094944;28;20443;-89
2021/12/30 02:10:07;;;;;;;3.90;0.70;;;11.50;99.90;;;;;;5093765;28;20504;-89
2021/12/30 02:12:37;;;;;;;2.30;0.80;;;11.40;99.90;;;;;;5094871;28;20485;-89
2021/12/30 02:15:05;;;;;;;1.73;0.57;;;11.80;99.90;;;;;;5094991;28;20462;-88
2021/12/30 02:17:32;;;;;;;0.80;0.50;;;11.70;99.90;;;;;;5089623;28;20446;-91
2021/12/30 02:20:02;;;;;;;1.00;0.57;;;11.70;99.90;;;;;;5094754;28;20447;-88
2021/12/30 02:22:28;;;;;;;1.20;0.70;;;11.60;99.90;;;;;;5094884;28;20483;-89
2021/12/30 02:24:57;;;;;;;1.37;0.50;;;11.50;99.90;;;;;;5090865;28;20477;-91
2021/12/30 02:27:24;;;;;;;1.23;0.77;;;11.60;99.90;;;;;;5091456;28;20447;-89
2021/12/30 02:29:51;;;;;;;1.07;0.70;;;11.60;99.90;;;;;;5094686;28;20494;-88
2021/12/30 02:32:18;;;;;;;1.03;0.60;;;11.60;99.90;;;;;;5094535;28;20463;-89
2021/12/30 02:34:45;;;;;;;1.47;0.50;;;11.40;99.90;;;;;;5094545;28;20478;-90
2021/12/30 02:37:16;;;;;;;0.60;0.50;;;11.50;99.90;;;;;;5091652;28;20451;-89
2021/12/30 02:39:47;;;;;;;3.80;0.50;;;;;;;;;;5093439;28;20483;-89
2021/12/30 02:42:14;;;;;;;3.73;0.70;;;11.40;99.90;;;;;;5094426;28;20457;-88
2021/12/30 02:44:40;;;;;;;2.97;0.70;;;11.40;99.90;;;;;;5087513;28;20815;-89
2021/12/30 02:47:08;;;;;;;3.33;0.67;;;;;;;;;;5094142;28;20456;-88
2021/12/30 02:49:35;;;;;;;1.33;0.83;;;;;;;;;;5094095;28;20491;-88
2021/12/30 02:52:02;;;;;;;1.10;0.63;;;;;;;;;;5091005;28;20501;-89
2021/12/30 02:54:30;;;;;;;1.00;0.60;;;11.50;99.90;;;;;;5093126;28;20928;-88
2021/12/30 02:56:57;;;;;;;2.60;0.87;;;;;;;;;;5093986;28;20452;-89
2021/12/30 02:59:25;;;;;;;0.67;0.67;;;11.60;99.90;;;;;;5093913;28;20463;-89
2021/12/30 03:01:52;;;;;;;1.90;0.60;;;;;;;;;;5093677;28;20496;-89
2021/12/30 03:04:19;;;;;;;1.17;0.53;;;11.00;99.90;;;;;;5090688;28;20852;-89
2021/12/30 03:06:46;;;;;;;0.80;0.50;;;11.70;99.90;;;;;;5093934;28;20452;-89
2021/12/30 03:09:13;;;;;;;1.03;0.47;;;;;;;;;;5094067;28;20497;-89
2021/12/30 03:11:41;;;;;;;1.30;0.53;;;11.60;99.90;;;;;;5092660;28;20459;-89
2021/12/30 03:14:08;;;;;;;2.53;0.70;;;11.50;99.90;;;;;;5093683;28;20949;-88
2021/12/30 03:16:37;;;;;;;1.83;0.50;;;11.30;99.90;;;;;;5090699;28;20460;-89
2021/12/30 03:19:05;;;;;;;0.73;0.50;;;11.60;99.90;;;;;;5093585;28;20466;-89
2021/12/30 03:21:32;;;;;;;0.87;0.47;;;;;;;;;;5093490;28;20467;-90
2021/12/30 03:24:03;;;;;;;0.90;0.37;;;11.50;99.90;;;;;;5093800;28;20456;-89
2021/12/30 03:26:31;;;;;;;2.67;0.67;;;11.40;99.90;;;;;;5092664;28;20451;-89
2021/12/30 03:29:00;;;;;;;1.77;0.73;;;11.60;99.90;;;;;;5090468;28;20957;-88
2021/12/30 03:31:27;;;;;;;0.83;0.50;;;;;;;;;;5093472;28;20447;-90
2021/12/30 03:33:54;;;;;;;2.43;0.57;;;11.60;99.90;;;;;;5086070;28;20468;-89
2021/12/30 03:36:21;;;;;;;0.90;0.60;;;11.50;99.90;;;;;;5093501;28;20906;-88
2021/12/30 03:38:51;;;;;;;1.03;0.53;;;11.50;99.90;;;;;;5090261;28;20510;-89
2021/12/30 03:41:20;;;;;;;3.43;0.77;;;11.50;99.90;;;;;;5089239;28;20440;-89
2021/12/30 03:43:47;;;;;;;1.20;0.70;;;;;;;;;;5093385;28;20457;-88
2021/12/30 03:46:16;;;;;;;1.30;0.73;;;11.40;99.90;;;;;;5093447;28;20965;-88
2021/12/30 03:48:44;;;;;;;0.77;0.50;;;11.00;99.90;;;;;;5090471;28;20458;-90
2021/12/30 03:51:14;;;;;;;1.37;0.57;;;11.60;99.90;;;;;;5093121;28;20505;-89
2021/12/30 03:53:45;;;;;;;0.80;0.40;;;11.40;99.90;;;;;;5093256;28;20593;-88
2021/12/30 03:56:14;;;;;;;0.93;0.40;;;11.00;99.90;;;;;;5091716;28;20474;-89
2021/12/30 03:58:43;;;;;;;1.23;0.70;;;11.70;99.90;;;;;;5093089;28;20452;-89
2021/12/30 04:01:12;;;;;;;0.80;0.60;;;11.70;99.90;;;;;;5093448;28;20461;-89
2021/12/30 04:03:40;;;;;;;1.30;0.70;;;11.80;99.90;;;;;;5090258;28;20502;-89
2021/12/30 04:06:07;;;;;;;3.23;0.67;;;11.60;99.90;;;;;;5087935;28;20452;-90
2021/12/30 04:08:35;;;;;;;1.33;0.60;;;11.60;99.90;;;;;;5090071;28;20446;-89
2021/12/30 04:11:02;;;;;;;0.83;0.47;;;11.70;99.90;;;;;;5092058;28;20503;-89
2021/12/30 04:13:30;;;;;;;0.50;0.43;;;11.60;99.90;;;;;;5093162;28;20468;-89
2021/12/30 04:15:57;;;;;;;1.07;0.57;;;11.60;99.90;;;;;;5093232;28;20475;-91
2021/12/30 04:18:24;;;;;;;4.30;0.57;;;11.60;99.90;;;;;;5093077;28;20460;-88
2021/12/30 04:20:52;;;;;;;0.87;0.43;;;11.50;99.90;;;;;;5040905;28;21967;-90
2021/12/30 04:23:19;;;;;;;1.03;0.50;;;11.30;99.90;;;;;;5093031;28;20493;-88
2021/12/30 04:25:46;;;;;;;1.10;0.60;;;;;;;;;;5089008;28;20462;-89
2021/12/30 04:28:14;;;;;;;0.47;0.27;;;11.50;99.90;;;;;;5093114;28;20462;-89
2021/12/30 04:30:41;;;;;;;0.80;0.50;;;;;;;;;;5085073;28;20487;-91
2021/12/30 04:33:08;;;;;;;1.17;1.00;;;11.30;99.90;;;;;;5090035;28;20451;-89
2021/12/30 04:35:35;;;;;;;0.80;0.43;;;;;;;;;;5092833;28;20455;-88
2021/12/30 04:38:03;;;;;;;0.40;0.40;;;11.80;99.90;;;;;;5092975;28;20527;-92
2021/12/30 04:40:31;;;;;;;0.50;0.30;;;;;;;;;;5091907;28;20448;-90
2021/12/30 04:42:58;;;;;;;2.00;0.40;;;;;;;;;;5092785;28;20973;-90
2021/12/30 04:45:27;;;;;;;0.70;0.43;;;11.50;99.90;;;;;;5092834;28;20459;-89
2021/12/30 04:47:57;;;;;;;1.07;0.30;;;11.80;99.90;;;;;;5092662;28;20949;-91
2021/12/30 04:50:25;;;;;;;0.40;0.30;;;11.40;99.90;;;;;;5092492;28;20498;-90
2021/12/30 04:52:52;;;;;;;0.60;0.40;;;11.30;99.90;;;;;;5088874;28;20544;-89
2021/12/30 04:55:20;;;;;;;1.10;0.33;;;11.60;99.90;;;;;;5091572;28;20951;-90
2021/12/30 04:57:47;;;;;;;0.47;0.30;;;;;;;;;;5092901;28;20451;-91
2021/12/30 05:00:15;;;;;;;0.50;0.40;;;11.80;99.90;;;;;;5092689;28;20450;-91
2021/12/30 05:05:30;;;;;;;0.47;0.37;;;11.70;99.90;;;;;;5085686;28;20459;-92
2021/12/30 05:07:57;;;;;;;2.73;0.50;;;;;;;;;;5095062;28;20771;-89
2021/12/30 05:10:25;;;;;;;1.70;0.40;;;11.40;99.90;;;;;;5095035;28;20848;-88
2021/12/30 05:12:52;;;;;;;0.40;0.40;;;;;;;;;;5096327;28;20447;-89
2021/12/30 05:15:20;;;;;;;2.07;0.67;;;;;;;;;;5085711;28;20920;-90
2021/12/30 05:17:47;;;;;;;1.47;0.30;;;;;;;;;;5083812;28;20453;-87
2021/12/30 05:20:15;;;;;;;0.50;0.30;;;11.60;99.90;;;;;;5084155;28;20497;-88
2021/12/30 05:22:43;;;;;;;1.60;0.60;;;;;;;;;;5085102;28;20470;-91
2021/12/30 05:25:15;;;;;;;1.07;0.30;;;11.50;99.90;;;;;;5081967;28;20441;-90
2021/12/30 05:27:56;;;;;;;0.60;0.30;;;11.70;99.90;;;;;;5081147;28;20448;-87
2021/12/30 05:30:26;;;;;;;0.67;0.40;;;11.80;99.90;;;;;;5085369;28;20515;-90
2021/12/30 05:32:58;;;;;;;1.23;0.50;;;11.60;99.90;;;;;;5081157;28;20440;-89
2021/12/30 05:35:26;;;;;;;0.60;0.33;;;12.20;99.90;;;;;;5081767;28;20854;-89
2021/12/30 05:37:55;;;;;;;0.70;0.50;;;11.50;99.90;;;;;;5088770;28;20456;-88
2021/12/30 05:40:23;;;;;;;0.40;0.20;;;11.70;99.90;;;;;;5083915;28;20796;-87
2021/12/30 05:42:52;;;;;;;0.60;0.40;;;12.00;99.90;;;;;;5086974;28;20782;-89
2021/12/30 05:45:20;;;;;;;0.50;0.30;;;11.70;99.90;;;;;;5092460;28;20453;-87
2021/12/30 05:47:49;;;;;;;0.70;0.40;;;11.80;99.90;;;;;;5095391;28;20947;-89
2021/12/30 05:50:17;;;;;;;0.50;0.30;;;12.20;99.90;;;;;;5095280;28;20485;-88
2021/12/30 05:52:44;;;;;;;0.40;0.20;;;11.70;99.90;;;;;;5093637;28;20812;-88
2021/12/30 05:55:13;;;;;;;0.47;0.33;;;12.10;99.90;;;;;;5091355;28;20455;-88
2021/12/30 05:57:40;;;;;;;0.50;0.33;;;11.80;99.90;;;;;;5090539;28;20931;-88
2021/12/30 06:00:13;;;;;;;0.70;0.40;;;11.80;99.90;;;;;;5089940;28;20456;-88
2021/12/30 06:02:40;;;;;;;0.40;0.37;;;11.70;99.90;;;;;;5095042;28;20479;-91
2021/12/30 06:05:08;;;;;;;0.40;0.30;;;11.40;99.90;;;;;;5095036;28;20447;-88
2021/12/30 06:07:35;;;;;;;0.33;0.20;;;11.50;99.90;;;;;;5095052;28;20451;-89
2021/12/30 06:10:02;;;;;;;0.57;0.30;;;;;;;;;;5093674;28;20492;-89
2021/12/30 06:12:29;;;;;;;0.40;0.30;;;11.90;99.90;;;;;;5095067;28;20461;-89
2021/12/30 06:14:57;;;;;;;6.33;0.70;;;11.60;99.90;;;;;;5095020;28;20448;-88
2021/12/30 06:17:25;;;;;;;0.80;0.30;;;11.70;99.90;;;;;;5094496;28;20456;-87
2021/12/30 06:19:53;;;;;;;1.80;0.40;;;;;;;;;;5079609;28;20450;-90
2021/12/30 06:22:21;;;;;;;0.40;0.30;;;;;;;;;;5079507;28;20497;-87
2021/12/30 06:24:48;;;;;;;0.70;0.40;;;;;;;;;;5080862;28;20510;-86
2021/12/30 06:27:15;;;;;;;0.40;0.30;;;11.60;99.90;;;;;;5084184;28;20448;-86
2021/12/30 06:29:42;;;;;;;1.00;0.30;;;11.70;99.90;;;;;;5085627;28;20540;-85
2021/12/30 06:32:09;;;;;;;0.40;0.30;;;;;;;;;;5082264;28;20447;-87
2021/12/30 06:34:38;;;;;;;0.63;0.30;;;11.90;99.90;;;;;;5078016;28;20526;-89
2021/12/30 06:37:05;;;;;;;0.43;0.30;;;;;;;;;;5083058;28;20441;-87
2021/12/30 06:39:32;;;;;;;1.17;0.40;;;;;;;;;;5073085;28;20460;-87
2021/12/30 06:41:59;;;;;;;0.40;0.30;;;11.20;99.90;;;;;;5074262;28;20970;-90
2021/12/30 06:44:25;;;;;;;1.23;0.30;;;11.60;99.90;;;;;;5070909;28;20453;-86
2021/12/30 06:46:57;;;;;;;0.60;0.40;;;;;;;;;;5068281;28;20481;-86
2021/12/30 06:49:24;;;;;;;0.50;0.30;;;;;;;;;;5073990;28;20449;-87
2021/12/30 06:51:53;;;;;;;0.87;0.47;;;11.80;99.90;;;;;;5074007;28;20499;-93
2021/12/30 06:54:20;;;;;;;1.50;0.30;;;;;;;;;;5074145;28;20449;-88
2021/12/30 06:56:47;;;;;;;0.47;0.33;;;11.50;99.90;;;;;;5073176;28;20456;-87
2021/12/30 06:59:15;;;;;;;0.40;0.20;;;11.50;99.90;;;;;;5073900;28;20446;-92
2021/12/30 07:01:44;;;;;;;1.33;0.30;;;11.70;99.90;;;;;;5070380;28;20592;-87
2021/12/30 07:04:10;;;;;;;1.00;0.37;;;11.40;99.90;;;;;;5069586;28;20455;-88
2021/12/30 07:06:37;;;;;;;0.53;0.30;;;10.50;99.90;;;;;;5069915;28;20439;-87
2021/12/30 07:09:06;;;;;;;0.50;0.30;;;11.50;99.90;;;;;;5073973;28;20456;-91
2021/12/30 07:11:38;;;;;;;0.50;0.30;;;11.60;99.90;;;;;;5072508;28;20499;-93
2021/12/30 07:14:05;;;;;;;0.47;0.40;;;11.60;99.90;;;;;;5069054;28;20460;-89
2021/12/30 07:16:33;;;;;;;1.10;0.50;;;;;;;;;;5074251;28;20540;-87
2021/12/30 07:19:00;;;;;;;0.80;0.40;;;;;;;;;;5073805;28;20611;-92
2021/12/30 07:21:27;;;;;;;0.77;0.40;;;;;;;;;;5073668;28;20480;-91
2021/12/30 07:23:54;;;;;;;1.67;0.53;;;;;;;;;;5073255;28;20957;-87
2021/12/30 07:26:22;;;;;;;0.40;0.30;;;11.70;99.90;;;;;;5072359;28;20456;-88
2021/12/30 07:28:49;;;;;;;0.40;0.27;;;;;;;;;;5073236;28;20463;-88
2021/12/30 07:31:16;;;;;;;0.60;0.60;;;;;;;;;;5068077;28;20864;-88
2021/12/30 07:33:43;;;;;;;0.47;0.37;;;;;;;;;;5073208;28;20459;-89
2021/12/30 07:36:11;;;;;;;0.40;0.30;;;;;;;;;;5073392;28;20814;-91
2021/12/30 07:38:38;;;;;;;1.07;0.30;;;11.60;99.90;;;;;;5073458;28;20450;-88
2021/12/30 07:41:05;;;;;;;0.40;0.30;;;;;;;;;;5072025;28;20462;-93
2021/12/30 07:43:33;;;;;;;1.33;0.40;;;11.90;99.90;;;;;;5069898;28;20450;-87
2021/12/30 07:46:07;;;;;;;0.40;0.30;;;11.70;99.90;;;;;;5073015;28;20460;-88
2021/12/30 07:48:34;;;;;;;0.50;0.37;;;11.90;99.90;;;;;;5073064;28;20504;-87
2021/12/30 07:51:01;;;;;;;1.27;0.40;;;11.70;99.90;;;;;;5081445;28;20483;-87
2021/12/30 07:53:28;;;;;;;0.67;0.40;;;11.70;99.90;;;;;;5085338;28;20443;-88
2021/12/30 07:55:55;;;;;;;3.10;0.80;;;;;;;;;;5076748;28;20451;-87
2021/12/30 07:58:22;;;;;;;1.03;0.60;;;11.60;99.90;;;;;;5072796;28;20969;-89
2021/12/30 08:00:53;;;;;;;1.20;0.60;;;;;;;;;;5079133;28;20451;-88
2021/12/30 08:03:20;;;;;;;0.40;0.30;;;;;;;;;;5082923;28;21041;-88
2021/12/30 08:05:51;;;;;;;0.60;0.53;;;;;;;;;;5077362;28;20962;-90
2021/12/30 08:08:18;;;;;;;0.87;0.30;;;;;;;;;;5063539;28;20481;-87
2021/12/30 08:10:48;;;;;;;0.50;0.40;;;;;;;;;;5081225;28;20486;-89
2021/12/30 08:13:15;;;;;;;1.90;0.40;;;;;;;;;;5086788;28;20807;-91
2021/12/30 08:15:43;;;;;;;0.50;0.30;;;12.00;99.90;;;;;;5093568;28;20444;-94
2021/12/30 08:18:12;;;;;;;0.50;0.30;;;12.10;99.90;;;;;;5090455;28;20466;-87
2021/12/30 08:20:39;;;;;;;0.40;0.20;;;;;;;;;;5092871;28;20494;-88
2021/12/30 08:23:06;;;;;;;0.40;0.30;;;;;;;;;;5093023;28;20443;-88
2021/12/30 08:25:33;;;;;;;0.40;0.30;;;11.80;99.90;;;;;;5091927;28;20445;-88
2021/12/30 08:28:00;;;;;;;1.43;0.30;;;;;;;;;;5092899;28;20448;-90
2021/12/30 08:30:31;;;;;;;0.50;0.40;;;12.20;99.90;;;;;;5093101;28;20819;-88
2021/12/30 08:32:58;;;;;;;0.40;0.40;;;12.10;99.90;;;;;;5093283;28;20915;-89
2021/12/30 08:35:27;;;;;;;0.70;0.40;;;12.00;99.90;;;;;;5089913;28;20460;-89
2021/12/30 08:37:55;;;;;;;0.93;0.50;;;12.00;99.90;;;;;;5087762;28;20457;-91
2021/12/30 08:40:23;;;;;;;1.20;0.93;;;12.00;99.90;;;;;;5091596;28;20448;-88
2021/12/30 08:42:50;;;;;;;21.40;14.20;;;;;;;;;;5096828;28;20461;-90
2021/12/30 08:45:17;;;;;;;5.10;2.50;;;12.20;99.90;;;;;;5093608;28;20498;-84
2021/12/30 08:47:45;;;;;;;28.70;14.67;;;12.10;99.90;;;;;;5091171;28;20455;-92
2021/12/30 08:50:14;;;;;;;9.50;7.30;;;12.10;99.90;;;;;;5101497;28;20452;-89
2021/12/30 08:52:44;;;;;;;1.70;1.60;;;12.10;99.90;;;;;;5096878;28;20508;-90
2021/12/30 08:55:14;;;;;;;17.00;15.20;;;12.20;99.90;;;;;;5092144;28;20449;-91
2021/12/30 08:57:42;;;;;;;30.10;21.43;;;12.60;99.90;;;;;;5092142;28;20997;-90
2021/12/30 09:00:14;;;;;;;34.43;19.80;;;12.20;99.90;;;;;;5096354;28;20452;-89
2021/12/30 09:02:42;;;;;;;7.83;5.67;;;12.40;99.90;;;;;;5096489;28;20488;-92
2021/12/30 09:05:10;;;;;;;6.40;4.87;;;12.90;99.90;;;;;;5093419;28;20457;-89
2021/12/30 09:07:37;;;;;;;7.30;5.50;;;;;;;;;;5098259;28;20475;-91
2021/12/30 09:10:08;;;;;;;12.27;10.73;;;13.20;99.90;;;;;;5095763;28;20456;-87
2021/12/30 09:12:35;;;;;;;8.77;7.97;;;;;;;;;;5077769;28;20503;-89
2021/12/30 09:15:05;;;;;;;4.20;3.80;;;13.60;99.90;;;;;;5096807;28;20447;-88
2021/12/30 09:17:31;;;;;;;1.90;1.80;;;13.60;99.90;;;;;;5098033;28;20974;-92
2021/12/30 09:19:58;;;;;;;1.93;1.20;;;13.70;99.90;;;;;;5096571;28;20528;-91
2021/12/30 09:22:25;;;;;;;1.17;0.60;;;;;;;;;;5096901;28;20451;-89
2021/12/30 09:24:52;;;;;;;2.20;2.00;;;;;;;;;;5095854;28;20462;-90
2021/12/30 09:27:21;;;;;;;0.50;0.40;;;14.30;99.90;;;;;;5096424;28;20451;-91
2021/12/30 09:29:48;;;;;;;0.50;0.30;;;;;;;;;;5096427;28;20459;-90
2021/12/30 09:32:15;;;;;;;1.00;0.40;;;;;;;;;;5094444;28;20537;-88
2021/12/30 09:34:42;;;;;;;1.53;0.57;;;;;;;;;;5096298;28;20452;-88
2021/12/30 09:37:10;;;;;;;0.50;0.30;;;;;;;;;;5092791;28;20498;-92
2021/12/30 09:39:37;;;;;;;0.50;0.30;;;;;;;;;;5096154;28;20553;-91
2021/12/30 09:42:05;;;;;;;0.50;0.30;;;;;;;;;;5096735;28;20453;-91
2021/12/30 09:44:33;;;;;;;0.50;0.30;;;14.20;99.90;;;;;;5096680;28;20572;-92
2021/12/30 09:47:01;;;;;;;0.40;0.30;;;;;;;;;;5096666;28;20499;-89
2021/12/30 09:49:29;;;;;;;0.50;0.30;;;14.20;99.90;;;;;;5091515;28;20845;-89
2021/12/30 09:51:56;;;;;;;1.50;0.57;;;;;;;;;;5094258;28;20490;-91
2021/12/30 09:54:23;;;;;;;1.07;0.40;;;14.40;99.90;;;;;;5093892;28;20461;-90
2021/12/30 09:56:51;;;;;;;0.90;0.70;;;;;;;;;;5095079;28;20445;-90
2021/12/30 09:59:18;;;;;;;0.60;0.47;;;;;;;;;;5096247;28;20452;-90
2021/12/30 10:01:46;;;;;;;0.50;0.30;;;14.10;99.90;;;;;;5095599;28;20493;-89
2021/12/30 10:04:14;;;;;;;0.50;0.30;;;14.10;99.90;;;;;;5095666;28;20538;-89
2021/12/30 10:06:46;;;;;;;0.67;0.40;;;14.90;99.90;;;;;;5095283;28;20453;-89
2021/12/30 10:09:15;;;;;;;0.50;0.40;;;14.30;99.90;;;;;;5095202;28;20460;-90
2021/12/30 10:11:48;;;;;;;2.63;0.53;;;14.40;99.90;;;;;;5093855;28;20587;-89
2021/12/30 10:14:27;;;;;;;0.50;0.40;;;14.20;99.90;;;;;;5089393;28;20454;-90
2021/12/30 10:17:15;;;;;;;0.60;0.40;;;14.00;99.90;;;;;;5095082;28;20452;-89
2021/12/30 10:19:42;;;;;;;0.70;0.33;;;;;;;;;;5094895;28;20473;-90
2021/12/30 10:22:10;;;;;;;0.50;0.40;;;14.40;99.90;;;;;;5094779;28;20449;-90
2021/12/30 10:24:37;;;;;;;0.50;0.40;;;;;;;;;;5088503;28;20520;-92
2021/12/30 10:27:04;;;;;;;0.50;0.30;;;;;;;;;;5094732;28;20445;-89
2021/12/30 10:29:41;;;;;;;1.27;0.50;;;14.70;99.90;;;;;;5094526;28;20451;-90
2021/12/30 10:32:16;;;;;;;0.40;0.30;;;14.30;99.90;;;;;;5094461;28;20492;-89
2021/12/30 10:35:02;;;;;;;1.47;0.40;;;14.30;99.90;;;;;;5089320;28;20454;-89
2021/12/30 10:37:29;;;;;;;0.60;0.47;;;;;;;;;;5094477;28;20447;-90
2021/12/30 10:39:56;;;;;;;0.50;0.40;;;;;;;;;;5089705;28;20452;-89
2021/12/30 10:42:23;;;;;;;0.60;0.40;;;;;;;;;;5094437;28;20445;-90
2021/12/30 10:44:52;;;;;;;0.83;0.47;;;15.10;99.90;;;;;;5094217;28;20473;-89
2021/12/30 10:47:21;;;;;;;0.50;0.40;;;15.00;99.90;;;;;;5094612;28;20453;-91
2021/12/30 10:49:57;;;;;;;0.40;0.30;;;15.00;99.90;;;;;;5094637;28;20443;-89
2021/12/30 10:52:25;;;;;;;0.40;0.30;;;;;;;;;;5091564;28;20494;-89
2021/12/30 10:54:52;;;;;;;0.70;0.40;;;;;;;;;;5093492;28;20452;-88
2021/12/30 10:57:19;;;;;;;0.60;0.33;;;;;;;;;;5094368;28;20860;-93
2021/12/30 10:59:49;;;;;;;0.63;0.37;;;15.20;99.90;;;;;;5094373;28;20460;-93
2021/12/30 11:02:18;;;;;;;0.60;0.40;;;15.20;99.90;;;;;;5094282;28;20488;-89
2021/12/30 11:04:49;;;;;;;0.47;0.40;;;15.10;99.90;;;;;;5093984;28;20458;-89
2021/12/30 11:07:18;;;;;;;0.60;0.40;;;15.30;99.90;;;;;;5093838;28;20840;-90
2021/12/30 11:09:49;;;;;;;0.50;0.40;;;14.80;99.90;;;;;;5092740;28;20912;-89
2021/12/30 11:12:16;;;;;;;0.50;0.30;;;;;;;;;;5093918;28;21019;-89
2021/12/30 11:14:44;;;;;;;0.50;0.40;;;;;;;;;;5093823;28;20983;-89
2021/12/30 11:17:15;;;;;;;1.17;0.30;;;15.40;99.90;;;;;;5090685;28;20810;-90
2021/12/30 11:19:44;;;;;;;0.77;0.30;;;15.40;99.90;;;;;;5088121;28;20459;-90
2021/12/30 11:22:15;;;;;;;0.77;0.30;;;15.40;99.90;;;;;;5093862;28;20447;-89
2021/12/30 11:24:43;;;;;;;0.70;0.37;;;15.20;99.90;;;;;;5092744;28;20451;-89
2021/12/30 11:27:11;;;;;;;1.33;0.30;;;;;;;;;;5093671;28;20841;-91
2021/12/30 11:29:42;;;;;;;0.60;0.30;;;15.40;99.90;;;;;;5093925;28;20467;-93
2021/12/30 11:32:11;;;;;;;0.53;0.30;;;;;;;;;;5091317;28;20495;-89
2021/12/30 11:34:38;;;;;;;0.50;0.30;;;;;;;;;;5093530;28;20531;-89
2021/12/30 11:37:08;;;;;;;0.50;0.30;;;15.80;99.90;;;;;;5093475;28;20538;-88
2021/12/30 11:39:42;;;;;;;0.50;0.20;;;15.70;99.90;;;;;;5092443;28;20874;-89
2021/12/30 11:42:13;;;;;;;0.60;0.30;;;15.70;99.90;;;;;;5093657;28;20443;-88
2021/12/30 11:44:43;;;;;;;0.50;0.20;;;15.80;99.90;;;;;;5072787;28;20467;-89
2021/12/30 11:47:37;;;;;;;1.33;0.30;;;15.80;99.90;;;;;;5073506;28;20543;-89
2021/12/30 11:50:07;;;;;;;0.47;0.27;;;15.80;99.90;;;;;;5073582;28;20964;-88
2021/12/30 11:52:53;;;;;;;0.53;0.33;;;16.30;99.90;;;;;;5072978;28;20500;-88
2021/12/30 11:55:55;;;;;;;0.50;0.30;;;16.40;99.90;;;;;;5069489;28;20472;-90
2021/12/30 11:58:53;;;;;;;0.60;0.40;;;15.50;99.90;;;;;;5070650;28;20512;-87
2021/12/30 12:01:45;;;;;;;0.40;0.20;;;15.80;99.90;;;;;;5073242;28;20449;-90
2021/12/30 12:04:27;;;;;;;0.50;0.30;;;15.30;99.90;;;;;;5073322;28;20444;-86
2021/12/30 12:07:03;;;;;;;0.50;0.30;;;15.20;99.90;;;;;;5083005;28;20452;-87
2021/12/30 12:09:42;;;;;;;0.50;0.30;;;15.10;99.90;;;;;;5086146;28;20462;-87
2021/12/30 12:12:13;;;;;;;0.53;0.33;;;15.20;99.90;;;;;;5072690;28;20495;-89
2021/12/30 12:14:45;;;;;;;1.27;0.20;;;15.00;99.90;;;;;;5070982;28;20458;-89
2021/12/30 12:17:17;;;;;;;0.40;0.30;;;14.90;99.90;;;;;;5070846;28;20453;-91
2021/12/30 12:19:46;;;;;;;0.50;0.20;;;15.00;99.90;;;;;;5073297;28;20453;-89
2021/12/30 12:22:29;;;;;;;0.50;0.20;;;15.20;99.90;;;;;;5090796;28;20468;-90
2021/12/30 12:25:10;;;;;;;0.50;0.30;;;15.00;99.90;;;;;;5096681;28;20455;-90
2021/12/30 12:27:41;;;;;;;0.50;0.30;;;14.80;99.90;;;;;;5098838;28;20452;-93
2021/12/30 12:30:22;;;;;;;0.40;0.30;;;15.00;99.90;;;;;;5094377;28;20463;-89
2021/12/30 12:32:49;;;;;;;0.50;0.30;;;;;;;;;;5097164;28;20491;-89
2021/12/30 12:35:29;;;;;;;0.63;0.30;;;14.80;99.90;;;;;;5095705;28;20467;-89
2021/12/30 12:37:59;;;;;;;0.40;0.30;;;14.70;99.90;;;;;;5095517;28;20494;-90
2021/12/30 12:40:35;;;;;;;0.43;0.23;;;14.40;99.90;;;;;;5095669;28;20943;-89
2021/12/30 12:43:10;;;;;;;0.50;0.30;;;14.60;99.90;;;;;;5097489;28;20477;-91
2021/12/30 12:45:41;;;;;;;0.70;0.20;;;14.60;99.90;;;;;;5094955;28;20463;-92
2021/12/30 12:48:24;;;;;;;0.50;0.33;;;14.10;99.90;;;;;;5089121;28;20505;-92
2021/12/30 12:50:54;;;;;;;0.50;0.30;;;14.50;99.90;;;;;;5092191;28;20473;-89
2021/12/30 12:53:38;;;;;;;0.50;0.33;;;14.50;99.90;;;;;;5092473;28;20488;-90
2021/12/30 12:56:08;;;;;;;0.70;0.60;;;14.60;99.90;;;;;;5095550;28;20939;-89
2021/12/30 12:58:41;;;;;;;0.40;0.20;;;14.60;99.90;;;;;;5096881;28;20447;-87
2021/12/30 13:01:10;;;;;;;0.53;0.30;;;14.70;99.90;;;;;;5095471;28;20444;-88
2021/12/30 13:03:38;;;;;;;0.50;0.30;;;14.90;99.90;;;;;;5093253;28;20484;-89
2021/12/30 13:06:09;;;;;;;0.50;0.27;;;15.00;99.90;;;;;;5080557;28;20440;-90
2021/12/30 13:08:39;;;;;;;0.40;0.30;;;14.90;99.90;;;;;;5090720;28;20440;-91
2021/12/30 13:11:08;;;;;;;0.40;0.20;;;14.70;99.90;;;;;;5095514;28;20454;-91
2021/12/30 13:13:38;;;;;;;0.50;0.30;;;14.60;99.90;;;;;;5095164;28;20522;-88
2021/12/30 13:16:07;;;;;;;2.30;1.93;;;14.60;99.90;;;;;;5058867;28;20456;-94
2021/12/30 13:18:34;;;;;;;1.50;1.40;;;;;;;;;;5059850;28;20508;-91
2021/12/30 13:21:19;;;;;;;0.60;0.50;;;14.40;99.90;;;;;;5065416;28;20442;-92
2021/12/30 13:23:46;;;;;;;0.77;0.40;;;;;;;;;;5054412;28;20532;-89
2021/12/30 13:26:13;;;;;;;0.50;0.30;;;;;;;;;;5052443;28;20441;-90
2021/12/30 13:28:50;;;;;;;0.90;0.50;;;14.30;99.90;;;;;;5053934;28;20448;-90
2021/12/30 13:31:18;;;;;;;0.50;0.30;;;14.40;99.90;;;;;;5054929;28;20444;-88